createdAt,value
2019-03-18T00:01:24.863Z,4.17
2019-03-18T00:03:53.884Z,7.20
2019-03-18T00:06:22.685Z,8.63
2019-03-18T00:08:51.505Z,5.07
2019-03-18T00:11:20.792Z,4.60
2019-03-18T00:13:49.682Z,5.57
2019-03-18T00:16:18.728Z,4.13
2019-03-18T00:18:47.581Z,4.53
2019-03-18T00:21:16.613Z,7.20
2019-03-18T00:23:45.431Z,5.30
2019-03-18T00:26:14.325Z,7.90
2019-03-18T00:28:43.190Z,5.17
2019-03-18T00:31:12.267Z,5.10
2019-03-18T00:33:41.274Z,5.07
2019-03-18T00:36:10.208Z,5.60
2019-03-18T00:38:38.977Z,4.80
2019-03-18T00:41:08.098Z,5.07
2019-03-18T00:43:36.876Z,4.57
2019-03-18T00:46:05.809Z,4.47
2019-03-18T00:48:34.667Z,4.37
2019-03-18T00:51:04.738Z,4.57
2019-03-18T00:53:33.493Z,5.60
2019-03-18T00:56:02.634Z,4.03
2019-03-18T00:58:31.471Z,3.53
2019-03-18T01:01:00.407Z,4.80
2019-03-18T01:03:29.233Z,4.63
2019-03-18T01:05:58.015Z,3.93
2019-03-18T01:08:26.838Z,5.93
2019-03-18T01:10:55.646Z,6.57
2019-03-18T01:13:24.573Z,3.87
2019-03-18T01:15:53.655Z,5.70
2019-03-18T01:18:41.521Z,4.47
2019-03-18T01:21:10.354Z,5.07
2019-03-18T01:23:39.278Z,3.90
2019-03-18T01:26:08.075Z,2.63
2019-03-18T01:28:37.102Z,3.57
2019-03-18T01:31:05.948Z,3.40
2019-03-18T01:33:34.801Z,5.47
2019-03-18T01:36:03.714Z,5.83
2019-03-18T01:38:32.560Z,5.87
2019-03-18T01:41:01.322Z,5.00
2019-03-18T01:43:30.371Z,6.57
2019-03-18T01:45:59.285Z,3.60
2019-03-18T01:48:28.154Z,4.77
2019-03-18T01:50:57.365Z,4.93
2019-03-18T01:53:36.179Z,3.03
2019-03-18T01:56:05.168Z,6.93
2019-03-18T01:58:33.935Z,4.17
2019-03-18T02:01:02.923Z,5.67
2019-03-18T02:03:31.771Z,4.83
2019-03-18T02:06:00.683Z,5.57
2019-03-18T02:08:29.538Z,6.67
2019-03-18T02:10:58.308Z,5.63
2019-03-18T02:13:27.325Z,5.23
2019-03-18T02:15:56.404Z,5.50
2019-03-18T02:18:25.514Z,3.60
2019-03-18T02:20:55.561Z,4.90
2019-03-18T02:23:24.518Z,4.90
2019-03-18T02:25:53.567Z,4.17
2019-03-18T02:28:22.477Z,4.30
2019-03-18T02:30:51.467Z,3.27
2019-03-18T02:33:20.317Z,4.97
2019-03-18T02:35:49.403Z,6.40
2019-03-18T02:38:18.235Z,4.83
2019-03-18T02:40:47.364Z,8.33
2019-03-18T02:43:16.125Z,5.97
2019-03-18T02:45:45.020Z,5.93
2019-03-18T02:48:13.903Z,5.63
2019-03-18T02:50:43.026Z,6.10
2019-03-18T02:53:11.771Z,4.30
2019-03-18T02:55:40.784Z,7.90
2019-03-18T02:58:09.767Z,5.90
2019-03-18T03:00:40.543Z,6.43
2019-03-18T03:03:10.346Z,5.47
2019-03-18T03:05:39.142Z,5.30
2019-03-18T03:08:08.088Z,4.43
2019-03-18T03:10:37.013Z,8.47
2019-03-18T03:13:06.088Z,6.47
2019-03-18T03:15:34.887Z,7.63
2019-03-18T03:18:03.733Z,8.20
2019-03-18T03:20:32.762Z,7.80
2019-03-18T03:23:02.010Z,5.50
2019-03-18T03:25:30.742Z,5.93
2019-03-18T03:27:59.741Z,7.87
2019-03-18T03:30:29.294Z,6.30
2019-03-18T03:32:58.265Z,5.47
2019-03-18T03:35:27.317Z,6.77
2019-03-18T03:38:02.879Z,5.87
2019-03-18T03:40:31.726Z,6.67
2019-03-18T03:43:01.599Z,7.30
2019-03-18T03:45:30.447Z,7.10
2019-03-18T03:47:59.383Z,7.70
2019-03-18T03:50:28.309Z,7.07
2019-03-18T03:52:57.238Z,8.30
2019-03-18T03:55:26.157Z,10.33
2019-03-18T03:57:54.988Z,6.50
2019-03-18T04:00:23.724Z,9.43
2019-03-18T04:02:52.737Z,6.60
2019-03-18T04:05:21.611Z,5.33
2019-03-18T04:07:50.401Z,6.73
2019-03-18T04:10:19.227Z,7.17
2019-03-18T04:12:48.077Z,7.70
2019-03-18T04:15:17.539Z,8.27
2019-03-18T04:17:46.443Z,12.13
2019-03-18T04:20:15.573Z,10.93
2019-03-18T04:22:44.517Z,8.30
2019-03-18T04:25:14.395Z,8.93
2019-03-18T04:27:43.319Z,10.30
2019-03-18T04:30:12.711Z,11.23
2019-03-18T04:32:41.504Z,8.27
2019-03-18T04:35:10.870Z,7.97
2019-03-18T04:37:39.767Z,8.80
2019-03-18T04:40:08.806Z,10.13
2019-03-18T04:42:37.603Z,10.80
2019-03-18T04:45:07.349Z,9.77
2019-03-18T04:47:36.948Z,10.97
2019-03-18T04:50:06.482Z,14.83
2019-03-18T04:52:35.374Z,11.23
2019-03-18T04:55:04.287Z,10.17
2019-03-18T04:57:33.327Z,11.03
2019-03-18T05:00:02.405Z,15.87
2019-03-18T05:02:31.495Z,11.67
2019-03-18T05:05:00.436Z,9.10
2019-03-18T05:07:29.335Z,10.67
2019-03-18T05:09:58.151Z,6.83
2019-03-18T05:12:26.990Z,5.53
2019-03-18T05:14:55.951Z,8.90
2019-03-18T05:17:26.850Z,5.93
2019-03-18T05:19:56.568Z,5.43
2019-03-18T05:22:25.409Z,6.70
2019-03-18T05:24:54.466Z,8.87
2019-03-18T05:27:23.294Z,9.57
2019-03-18T05:29:52.351Z,9.63
2019-03-18T05:32:21.122Z,9.17
2019-03-18T05:34:50.148Z,11.00
2019-03-18T05:37:18.970Z,11.83
2019-03-18T05:39:48.093Z,12.83
2019-03-18T05:42:16.861Z,13.57
2019-03-18T05:44:45.858Z,16.27
2019-03-18T05:47:14.662Z,13.73
2019-03-18T05:49:43.686Z,12.50
2019-03-18T05:52:13.138Z,14.97
2019-03-18T05:54:42.360Z,16.10
2019-03-18T05:57:12.181Z,14.33
2019-03-18T05:59:41.070Z,13.10
2019-03-18T06:02:09.924Z,18.20
2019-03-18T06:04:38.856Z,11.77
2019-03-18T06:07:07.726Z,13.90
2019-03-18T06:09:36.677Z,14.67
2019-03-18T06:12:05.540Z,16.40
2019-03-18T06:14:34.546Z,13.47
2019-03-18T06:17:03.304Z,10.53
2019-03-18T06:19:32.180Z,13.97
2019-03-18T06:22:00.945Z,13.40
2019-03-18T06:24:29.793Z,11.17
2019-03-18T06:26:58.652Z,18.00
2019-03-18T06:29:27.692Z,16.80
2019-03-18T06:31:56.772Z,12.73
2019-03-18T06:34:25.685Z,12.13
2019-03-18T06:36:54.876Z,13.60
2019-03-18T06:39:24.099Z,9.43
2019-03-18T06:41:53.077Z,15.40
2019-03-18T06:44:22.256Z,12.33
2019-03-18T06:46:51.303Z,12.30
2019-03-18T06:49:20.121Z,10.40
2019-03-18T06:51:48.871Z,10.90
2019-03-18T06:54:17.733Z,14.03
2019-03-18T06:56:46.557Z,9.07
2019-03-18T06:59:16.268Z,11.97
2019-03-18T07:01:45.077Z,10.93
2019-03-18T07:04:13.941Z,9.70
2019-03-18T07:06:42.756Z,10.63
2019-03-18T07:09:11.975Z,11.53
2019-03-18T07:11:41.008Z,10.53
2019-03-18T07:14:09.876Z,15.33
2019-03-18T07:16:38.787Z,13.60
2019-03-18T07:19:07.611Z,10.03
2019-03-18T07:21:36.720Z,12.67
2019-03-18T07:24:05.530Z,14.33
2019-03-18T07:26:34.394Z,18.30
2019-03-18T07:29:03.292Z,18.23
2019-03-18T07:31:32.528Z,19.00
2019-03-18T07:34:01.733Z,16.67
2019-03-18T07:36:30.598Z,15.87
2019-03-18T07:38:59.609Z,15.47
2019-03-18T07:41:28.502Z,16.83
2019-03-18T07:43:57.295Z,15.90
2019-03-18T07:46:26.332Z,13.50
2019-03-18T07:48:55.345Z,13.10
2019-03-18T07:51:24.171Z,15.50
2019-03-18T07:53:53.010Z,11.30
2019-03-18T07:56:22.125Z,19.77
2019-03-18T07:58:51.124Z,14.93
2019-03-18T08:01:20.325Z,16.93
2019-03-18T08:03:49.293Z,15.87
2019-03-18T08:06:18.115Z,19.60
2019-03-18T08:08:46.927Z,18.47
2019-03-18T08:11:15.720Z,17.73
2019-03-18T08:13:44.610Z,14.60
2019-03-18T08:16:13.628Z,15.63
2019-03-18T08:18:43.612Z,13.40
2019-03-18T08:21:12.890Z,15.33
2019-03-18T08:23:44.461Z,13.97
2019-03-18T08:26:13.366Z,15.10
2019-03-18T08:28:42.177Z,16.60
2019-03-18T08:31:11.873Z,10.83
2019-03-18T08:33:42.731Z,20.07
2019-03-18T08:36:11.473Z,12.10
2019-03-18T08:38:40.308Z,12.13
2019-03-18T08:41:09.159Z,16.07
2019-03-18T08:43:37.956Z,18.00
2019-03-18T08:46:06.835Z,16.00
2019-03-18T08:48:35.673Z,14.97
2019-03-18T08:51:04.738Z,20.13
2019-03-18T08:53:33.629Z,21.60
2019-03-18T08:56:02.368Z,15.57
2019-03-18T08:58:31.149Z,13.53
2019-03-18T09:00:59.954Z,17.40
2019-03-18T09:03:28.936Z,13.63
2019-03-18T09:05:57.708Z,14.97
2019-03-18T09:08:26.671Z,20.07
2019-03-18T09:10:55.610Z,18.80
2019-03-18T09:13:24.371Z,17.93
2019-03-18T09:15:53.466Z,15.97
2019-03-18T09:18:22.194Z,17.47
2019-03-18T09:20:51.129Z,17.67
2019-03-18T09:23:19.934Z,20.60
2019-03-18T09:25:50.035Z,15.40
2019-03-18T09:28:18.789Z,13.83
2019-03-18T09:30:47.589Z,15.93
2019-03-18T09:33:16.591Z,14.73
2019-03-18T09:35:45.379Z,17.43
2019-03-18T09:38:14.741Z,12.70
2019-03-18T09:40:44.707Z,14.73
2019-03-18T09:43:13.697Z,17.80
2019-03-18T09:45:42.475Z,14.80
2019-03-18T09:48:11.303Z,14.70
2019-03-18T09:50:40.302Z,15.40
2019-03-18T09:53:09.181Z,11.37
2019-03-18T09:55:38.042Z,15.83
2019-03-18T09:58:07.172Z,14.47
2019-03-18T10:00:35.934Z,13.77
2019-03-18T10:03:06.614Z,17.13
2019-03-18T10:05:35.482Z,11.60
2019-03-18T10:08:04.296Z,14.67
2019-03-18T10:10:35.134Z,13.03
2019-03-18T10:13:03.934Z,13.03
2019-03-18T10:15:34.515Z,14.47
2019-03-18T10:18:03.501Z,19.30
2019-03-18T10:20:32.407Z,14.60
2019-03-18T10:23:03.017Z,10.00
2019-03-18T10:25:31.739Z,10.93
2019-03-18T10:28:00.560Z,12.50
2019-03-18T10:30:29.454Z,12.90
2019-03-18T10:32:58.279Z,13.63
2019-03-18T10:35:27.076Z,12.53
2019-03-18T10:37:56.123Z,12.57
2019-03-18T10:40:27.069Z,10.37
2019-03-18T10:42:55.890Z,13.77
2019-03-18T10:45:25.978Z,9.77
2019-03-18T10:47:55.239Z,14.77
2019-03-18T10:50:24.487Z,12.30
2019-03-18T10:52:53.372Z,7.30
2019-03-18T10:55:22.306Z,12.23
2019-03-18T10:57:51.091Z,11.77
2019-03-18T11:00:22.173Z,7.17
2019-03-18T11:02:51.213Z,8.77
2019-03-18T11:05:19.963Z,11.13
2019-03-18T11:07:51.589Z,12.10
2019-03-18T11:10:19.290Z,10.10
2019-03-18T11:12:48.053Z,10.03
2019-03-18T11:15:17.107Z,10.00
2019-03-18T11:17:45.899Z,9.33
2019-03-18T11:20:14.747Z,8.93
2019-03-18T11:22:45.565Z,8.63
2019-03-18T11:25:14.547Z,10.77
2019-03-18T11:27:43.279Z,15.03
2019-03-18T11:30:12.282Z,10.53
2019-03-18T11:32:41.334Z,7.13
2019-03-18T11:35:10.466Z,12.43
2019-03-18T11:37:39.291Z,17.73
2019-03-18T11:40:08.621Z,17.63
2019-03-18T11:42:37.398Z,12.00
2019-03-18T11:45:08.146Z,10.90
2019-03-18T11:47:37.216Z,10.70
2019-03-18T11:50:11.544Z,9.27
2019-03-18T11:52:37.594Z,10.97
2019-03-18T11:55:07.323Z,8.93
2019-03-18T11:57:36.072Z,9.23
2019-03-18T12:00:06.586Z,10.23
2019-03-18T12:02:35.869Z,7.90
2019-03-18T12:05:05.307Z,10.53
2019-03-18T12:07:34.122Z,14.17
2019-03-18T12:10:03.230Z,9.43
2019-03-18T12:12:34.323Z,10.17
2019-03-18T12:15:03.051Z,10.00
2019-03-18T12:17:31.999Z,11.40
2019-03-18T12:20:00.782Z,13.83
2019-03-18T12:22:29.604Z,14.70
2019-03-18T12:24:58.422Z,9.80
2019-03-18T12:27:27.247Z,13.20
2019-03-18T12:29:56.066Z,13.60
2019-03-18T12:32:24.862Z,12.10
2019-03-18T12:34:54.457Z,13.07
2019-03-18T12:37:23.518Z,12.87
2019-03-18T12:39:52.283Z,7.33
2019-03-18T12:42:21.112Z,12.97
2019-03-18T12:44:49.915Z,9.73
2019-03-18T12:47:18.779Z,11.00
2019-03-18T12:49:47.609Z,7.13
2019-03-18T12:52:16.387Z,6.50
2019-03-18T12:54:45.291Z,10.50
2019-03-18T12:57:14.129Z,9.33
2019-03-18T12:59:45.299Z,10.50
2019-03-18T13:02:14.412Z,11.40
2019-03-18T13:04:43.758Z,16.43
2019-03-18T13:07:13.491Z,16.87
2019-03-18T13:09:42.355Z,7.70
2019-03-18T13:12:13.254Z,8.33
2019-03-18T13:14:41.611Z,16.57
2019-03-18T13:17:12.449Z,12.53
2019-03-18T13:19:41.402Z,12.33
2019-03-18T13:22:10.302Z,10.90
2019-03-18T13:24:39.182Z,9.50
2019-03-18T13:27:08.477Z,12.20
2019-03-18T13:29:37.433Z,10.40
2019-03-18T13:32:06.175Z,10.63
2019-03-18T13:34:35.030Z,8.93
2019-03-18T13:37:03.853Z,7.00
2019-03-18T13:39:32.850Z,7.37
2019-03-18T13:42:01.664Z,6.57
2019-03-18T13:44:30.562Z,7.87
2019-03-18T13:46:59.494Z,8.60
2019-03-18T13:49:28.365Z,9.73
2019-03-18T13:51:57.199Z,4.67
2019-03-18T13:54:26.233Z,5.73
2019-03-18T13:56:55.035Z,6.07
2019-03-18T13:59:24.175Z,10.63
2019-03-18T14:01:52.985Z,5.40
2019-03-18T14:04:22.612Z,6.27
2019-03-18T14:06:51.392Z,7.10
2019-03-18T14:09:20.275Z,7.13
2019-03-18T14:11:49.028Z,6.97
2019-03-18T14:14:18.362Z,8.07
2019-03-18T14:16:47.142Z,9.60
2019-03-18T14:19:17.972Z,9.50
2019-03-18T14:21:46.749Z,12.83
2019-03-18T14:24:15.667Z,14.47
2019-03-18T14:26:44.466Z,9.80
2019-03-18T14:29:14.034Z,9.57
2019-03-18T14:31:43.680Z,12.67
2019-03-18T14:34:12.579Z,11.07
2019-03-18T14:36:41.396Z,9.77
2019-03-18T14:39:10.177Z,6.90
2019-03-18T14:41:39.038Z,9.40
2019-03-18T14:44:07.778Z,8.03
2019-03-18T14:46:37.033Z,7.27
2019-03-18T14:49:05.771Z,4.37
2019-03-18T14:51:45.383Z,9.17
2019-03-18T14:54:05.582Z,7.17
2019-03-18T14:56:34.375Z,10.33
2019-03-18T14:59:03.180Z,6.10
2019-03-18T15:01:39.295Z,5.80
2019-03-18T15:04:08.916Z,5.20
2019-03-18T15:06:37.796Z,10.90
2019-03-18T15:09:07.566Z,6.50
2019-03-18T15:11:36.420Z,5.50
2019-03-18T15:14:05.174Z,9.33
2019-03-18T15:16:34.096Z,6.27
2019-03-18T15:19:02.887Z,10.93
2019-03-18T15:21:31.767Z,7.17
2019-03-18T15:24:00.621Z,9.53
2019-03-18T15:26:29.480Z,10.37
2019-03-18T15:28:58.465Z,5.07
2019-03-18T15:31:27.307Z,6.70
2019-03-18T15:33:56.398Z,5.33
2019-03-18T15:36:25.697Z,10.13
2019-03-18T15:38:54.554Z,9.43
2019-03-18T15:41:23.367Z,9.33
2019-03-18T15:43:52.394Z,8.80
2019-03-18T15:46:21.247Z,8.17
2019-03-18T15:48:50.622Z,8.70
2019-03-18T15:51:19.428Z,5.23
2019-03-18T15:53:48.386Z,8.00
2019-03-18T15:56:17.412Z,6.27
2019-03-18T15:58:46.542Z,12.23
2019-03-18T16:01:15.318Z,7.00
2019-03-18T16:03:44.157Z,12.27
2019-03-18T16:06:13.771Z,10.10
2019-03-18T16:08:42.575Z,9.07
2019-03-18T16:11:11.714Z,9.90
2019-03-18T16:13:40.643Z,7.63
2019-03-18T16:16:10.266Z,9.73
2019-03-18T16:18:39.213Z,9.80
2019-03-18T16:21:08.191Z,11.90
2019-03-18T16:23:38.221Z,6.40
2019-03-18T16:26:08.045Z,7.40
2019-03-18T16:28:36.857Z,6.40
2019-03-18T16:31:05.922Z,8.70
2019-03-18T16:33:35.064Z,13.07
2019-03-18T16:36:03.872Z,8.37
2019-03-18T16:38:32.658Z,8.73
2019-03-18T16:41:03.658Z,9.83
2019-03-18T16:43:32.466Z,10.60
2019-03-18T16:46:01.276Z,7.83
2019-03-18T16:48:30.436Z,12.00
2019-03-18T16:50:59.252Z,9.77
2019-03-18T16:53:28.154Z,12.37
2019-03-18T16:55:57.195Z,10.47
2019-03-18T16:58:26.064Z,6.07
2019-03-18T17:00:55.309Z,10.20
2019-03-18T17:03:24.786Z,7.67
2019-03-18T17:05:53.612Z,14.90
2019-03-18T17:08:22.940Z,8.87
2019-03-18T17:10:51.788Z,7.60
2019-03-18T17:13:21.023Z,10.37
2019-03-18T17:15:50.207Z,13.50
2019-03-18T17:18:19.827Z,8.40
2019-03-18T17:20:49.311Z,8.10
2019-03-18T17:23:18.176Z,8.73
2019-03-18T17:25:47.251Z,5.37
2019-03-18T17:28:16.356Z,6.73
2019-03-18T17:30:45.933Z,3.67
2019-03-18T17:33:15.137Z,5.78
2019-03-18T17:35:43.987Z,5.27
2019-03-18T17:38:15.458Z,6.10
2019-03-18T17:40:44.326Z,6.60
2019-03-18T17:43:13.132Z,2.93
2019-03-18T17:45:42.387Z,7.13
2019-03-18T17:48:11.908Z,7.30
2019-03-18T17:50:40.732Z,10.67
2019-03-18T17:53:09.584Z,7.17
2019-03-18T17:55:38.535Z,6.90
2019-03-18T17:58:07.731Z,4.77
2019-03-18T18:00:42.791Z,3.90
2019-03-18T18:03:12.409Z,4.30
2019-03-18T18:05:41.224Z,10.47
2019-03-18T18:08:10.048Z,5.73
2019-03-18T18:10:39.113Z,5.50
2019-03-18T18:13:07.960Z,6.03
2019-03-18T18:15:39.300Z,6.10
2019-03-18T18:18:08.187Z,7.13
2019-03-18T18:20:37.959Z,9.53
2019-03-18T18:23:14.218Z,8.33
2019-03-18T18:25:37.916Z,5.10
2019-03-18T18:28:06.868Z,8.40
2019-03-18T18:30:35.879Z,8.23
2019-03-18T18:33:07.672Z,7.30
2019-03-18T18:35:35.581Z,6.37
2019-03-18T18:38:05.255Z,7.97
2019-03-18T18:40:34.119Z,13.23
2019-03-18T18:43:03.144Z,8.60
2019-03-18T18:45:32.240Z,10.63
2019-03-18T18:48:01.233Z,13.73
2019-03-18T18:50:32.531Z,6.63
2019-03-18T18:53:01.624Z,10.17
2019-03-18T18:55:30.829Z,9.17
2019-03-18T18:57:59.836Z,7.30
2019-03-18T19:00:29.305Z,10.07
2019-03-18T19:02:58.264Z,7.37
2019-03-18T19:05:27.198Z,10.53
2019-03-18T19:07:57.558Z,9.83
2019-03-18T19:10:26.831Z,10.07
2019-03-18T19:12:55.939Z,7.37
2019-03-18T19:15:25.026Z,16.97
2019-03-18T19:17:54.034Z,8.90
2019-03-18T19:20:23.239Z,7.97
2019-03-18T19:22:52.439Z,10.80
2019-03-18T19:25:21.264Z,10.70
2019-03-18T19:27:50.491Z,14.37
2019-03-18T19:30:19.509Z,13.70
2019-03-18T19:32:48.593Z,13.73
2019-03-18T19:35:17.752Z,11.13
2019-03-18T19:37:47.105Z,11.53
2019-03-18T19:40:17.804Z,12.80
2019-03-18T19:42:47.165Z,9.40
2019-03-18T19:45:16.336Z,9.77
2019-03-18T19:47:45.345Z,11.40
2019-03-18T19:50:15.159Z,9.23
2019-03-18T19:52:44.145Z,7.70
2019-03-18T19:55:13.160Z,10.17
2019-03-18T19:57:42.109Z,9.30
2019-03-18T20:00:12.660Z,11.27
2019-03-18T20:02:41.727Z,11.50
2019-03-18T20:05:15.004Z,6.17
2019-03-18T20:07:41.752Z,9.07
2019-03-18T20:10:11.241Z,10.87
2019-03-18T20:12:40.299Z,9.20
2019-03-18T20:15:10.008Z,11.83
2019-03-18T20:17:39.084Z,8.63
2019-03-18T20:20:09.085Z,13.70
2019-03-18T20:22:38.312Z,12.50
2019-03-18T20:25:07.620Z,14.90
2019-03-18T20:27:36.671Z,11.83
2019-03-18T20:30:06.685Z,12.17
2019-03-18T20:32:35.826Z,11.77
2019-03-18T20:35:05.388Z,20.23
2019-03-18T20:37:34.524Z,9.87
2019-03-18T20:40:03.609Z,10.13
2019-03-18T20:42:32.730Z,11.27
2019-03-18T20:45:01.804Z,8.90
2019-03-18T20:47:30.740Z,8.43
2019-03-18T20:49:59.847Z,7.43
2019-03-18T20:52:28.812Z,15.57
2019-03-18T20:54:57.813Z,7.63
2019-03-18T20:57:26.898Z,8.63
2019-03-18T20:59:56.233Z,9.70
2019-03-18T21:02:25.092Z,8.70
2019-03-18T21:04:53.929Z,11.77
2019-03-18T21:07:22.732Z,12.43
2019-03-18T21:09:52.253Z,12.77
2019-03-18T21:12:21.188Z,9.60
2019-03-18T21:14:51.426Z,11.03
2019-03-18T21:17:21.501Z,10.70
2019-03-18T21:19:50.420Z,7.87
2019-03-18T21:22:19.412Z,11.63
2019-03-18T21:24:48.833Z,10.23
2019-03-18T21:27:17.819Z,13.77
2019-03-18T21:29:49.552Z,8.27
2019-03-18T21:32:19.272Z,8.30
2019-03-18T21:34:49.209Z,13.40
2019-03-18T21:37:18.358Z,14.07
2019-03-18T21:39:49.358Z,6.70
2019-03-18T21:42:18.575Z,10.37
2019-03-18T21:44:47.972Z,10.47
2019-03-18T21:47:17.418Z,11.27
2019-03-18T21:49:46.461Z,10.60
2019-03-18T21:52:16.756Z,9.47
2019-03-18T21:54:46.209Z,10.63
2019-03-18T21:57:16.253Z,13.53
2019-03-18T21:59:45.274Z,12.13
2019-03-18T22:02:14.268Z,13.47
2019-03-18T22:04:43.152Z,13.00
2019-03-18T22:07:11.988Z,13.50
2019-03-18T22:09:40.815Z,12.23
2019-03-18T22:12:09.785Z,10.07
2019-03-18T22:14:38.583Z,6.63
2019-03-18T22:17:07.513Z,7.57
2019-03-18T22:19:36.426Z,8.67
2019-03-18T22:22:05.480Z,9.00
2019-03-18T22:24:44.523Z,11.80
2019-03-18T22:27:04.983Z,10.97
2019-03-18T22:29:34.629Z,14.57
2019-03-18T22:32:03.526Z,10.00
2019-03-18T22:34:32.489Z,16.27
2019-03-18T22:37:03.742Z,11.23
2019-03-18T22:39:32.759Z,11.90
2019-03-18T22:42:02.157Z,14.80
2019-03-18T22:44:31.123Z,13.90
2019-03-18T22:47:00.644Z,13.33
2019-03-18T22:49:29.812Z,12.37
2019-03-18T22:51:58.673Z,9.70
2019-03-18T22:54:27.511Z,16.43
2019-03-18T22:56:56.314Z,8.90
2019-03-18T22:59:25.206Z,13.10
2019-03-18T23:01:54.496Z,12.87
2019-03-18T23:04:23.548Z,9.77
2019-03-18T23:06:52.324Z,9.47
2019-03-18T23:09:21.201Z,9.43
2019-03-18T23:11:50.157Z,15.93
2019-03-18T23:14:23.093Z,12.83
2019-03-18T23:16:51.972Z,12.57
2019-03-18T23:19:21.160Z,10.40
2019-03-18T23:21:50.167Z,17.40
2019-03-18T23:24:19.334Z,15.50
2019-03-18T23:26:48.277Z,12.90
2019-03-18T23:29:18.219Z,14.80
2019-03-18T23:31:47.134Z,9.47
2019-03-18T23:34:15.894Z,14.57
2019-03-18T23:36:44.750Z,12.23
2019-03-18T23:39:13.656Z,9.17
2019-03-18T23:41:42.657Z,18.80
2019-03-18T23:44:11.829Z,13.43
2019-03-18T23:46:40.849Z,11.77
2019-03-18T23:49:09.675Z,14.80
2019-03-18T23:51:38.959Z,14.17
2019-03-18T23:54:07.728Z,11.43
2019-03-18T23:56:38.537Z,13.67
2019-03-18T23:59:07.736Z,12.53
